Terminal Aerodrome Forecast
Issued by NWS Twin Cities, MN

Home | Current Version | Previous Version | Text Only | Print | Product List | Glossary On
Versions: 1 2 3 4 5 6 7 8 9 10 11 12 13 14 15 16 17 18 19 20 21 22 23 24 25 26
969
FTUS43 KMPX 241446 AAA
TAFMSP
TAF AMD
KMSP 241446Z 2415/2518 29014G22KT P6SM BKN070
     FM241700 29014G22KT P6SM VCSH SCT035 BKN050 BKN090
      TEMPO 2418/2421 5SM SHRA OVC040
     FM250000 31015G23KT P6SM BKN050
     FM250100 30011KT P6SM SCT060=

USA.gov is the U.S. government's official web portal to all federal, state and local government web resources and services.